createdAt,value
2019-02-05T00:01:24.804Z,8.27
2019-02-05T00:03:52.515Z,9.03
2019-02-05T00:06:20.263Z,8.83
2019-02-05T00:08:47.697Z,9.20
2019-02-05T00:11:15.081Z,7.83
2019-02-05T00:13:42.449Z,9.27
2019-02-05T00:16:09.887Z,8.73
2019-02-05T00:18:37.236Z,8.20
2019-02-05T00:21:04.507Z,8.70
2019-02-05T00:23:32.174Z,9.27
2019-02-05T00:26:06.462Z,8.83
2019-02-05T00:28:28.536Z,9.37
2019-02-05T00:30:55.965Z,9.20
2019-02-05T00:33:23.275Z,9.80
2019-02-05T00:35:50.626Z,9.17
2019-02-05T00:38:18.032Z,8.83
2019-02-05T00:40:45.797Z,8.73
2019-02-05T00:43:13.214Z,8.03
2019-02-05T00:45:40.660Z,8.77
2019-02-05T00:48:08.071Z,8.40
2019-02-05T00:50:35.334Z,9.03
2019-02-05T00:53:02.908Z,9.40
2019-02-05T00:55:30.328Z,9.90
2019-02-05T00:57:57.996Z,9.70
2019-02-05T01:00:26.497Z,9.23
2019-02-05T01:02:54.008Z,8.93
2019-02-05T01:05:21.550Z,9.37
2019-02-05T01:07:48.962Z,9.77
2019-02-05T01:10:16.920Z,9.60
2019-02-05T01:12:44.357Z,9.93
2019-02-05T01:15:13.869Z,9.67
2019-02-05T01:17:41.335Z,9.13
2019-02-05T01:20:11.942Z,9.53
2019-02-05T01:22:39.311Z,10.03
2019-02-05T01:25:06.764Z,9.47
2019-02-05T01:27:34.343Z,9.37
2019-02-05T01:30:01.809Z,9.97
2019-02-05T01:32:29.159Z,10.47
2019-02-05T01:34:56.597Z,10.27
2019-02-05T01:37:23.982Z,10.57
2019-02-05T01:39:51.306Z,10.30
2019-02-05T01:42:18.675Z,11.20
2019-02-05T01:44:46.058Z,10.00
2019-02-05T01:47:13.632Z,9.23
2019-02-05T01:49:41.009Z,10.23
2019-02-05T01:52:08.468Z,9.67
2019-02-05T01:54:35.906Z,10.03
2019-02-05T01:57:03.505Z,9.57
2019-02-05T01:59:30.941Z,9.97
2019-02-05T02:01:58.364Z,9.67
2019-02-05T02:04:25.796Z,9.50
2019-02-05T02:06:53.206Z,10.07
2019-02-05T02:09:20.653Z,10.07
2019-02-05T02:11:48.033Z,10.23
2019-02-05T02:14:15.530Z,9.23
2019-02-05T02:16:42.775Z,9.10
2019-02-05T02:19:10.145Z,9.57
2019-02-05T02:21:37.408Z,9.80
2019-02-05T02:24:05.107Z,9.57
2019-02-05T02:26:32.429Z,11.03
2019-02-05T02:28:59.769Z,9.70
2019-02-05T02:31:27.036Z,8.83
2019-02-05T02:33:54.421Z,8.63
2019-02-05T02:36:21.686Z,9.60
2019-02-05T02:38:49.083Z,10.07
2019-02-05T02:41:17.382Z,10.20
2019-02-05T02:43:44.877Z,9.70
2019-02-05T02:46:12.149Z,10.13
2019-02-05T02:48:39.489Z,9.10
2019-02-05T02:51:06.854Z,9.83
2019-02-05T02:53:34.312Z,9.83
2019-02-05T02:56:01.730Z,9.73
2019-02-05T02:58:30.345Z,9.03
2019-02-05T03:00:57.723Z,8.90
2019-02-05T03:03:25.116Z,9.70
2019-02-05T03:05:52.524Z,10.03
2019-02-05T03:08:19.819Z,9.60
2019-02-05T03:10:47.247Z,8.53
2019-02-05T03:13:14.918Z,9.23
2019-02-05T03:15:42.325Z,9.13
2019-02-05T03:18:10.119Z,9.50
2019-02-05T03:20:37.576Z,9.67
2019-02-05T03:23:05.048Z,9.83
2019-02-05T03:25:32.424Z,9.80
2019-02-05T03:27:59.800Z,9.50
2019-02-05T03:30:27.357Z,9.40
2019-02-05T03:32:54.824Z,9.23
2019-02-05T03:35:22.558Z,9.27
2019-02-05T03:37:49.945Z,9.63
2019-02-05T03:41:09.214Z,10.17
2019-02-05T03:43:37.593Z,9.60
2019-02-05T03:46:07.042Z,9.93
2019-02-05T03:48:34.530Z,10.60
2019-02-05T03:51:39.761Z,10.30
2019-02-05T03:54:29.511Z,9.40
2019-02-05T03:57:47.961Z,9.23
2019-02-05T04:00:45.789Z,9.47
2019-02-05T04:03:58.220Z,9.27
2019-02-05T04:07:25.560Z,8.70
2019-02-05T04:10:19.210Z,8.73
2019-02-05T04:13:43.984Z,8.43
2019-02-05T04:16:48.416Z,10.10
2019-02-05T04:19:43.338Z,9.53
2019-02-05T04:22:43.978Z,8.93
2019-02-05T04:25:31.240Z,8.97
2019-02-05T04:28:52.788Z,8.80
2019-02-05T04:31:45.607Z,9.03
2019-02-05T04:34:31.739Z,8.63
2019-02-05T04:37:52.979Z,8.97
2019-02-05T04:40:42.402Z,9.57
2019-02-05T04:43:33.887Z,10.03
2019-02-05T04:49:37.135Z,8.93
2019-02-05T04:52:54.496Z,8.67
2019-02-05T04:55:37.369Z,9.53
2019-02-05T04:58:31.490Z,10.00
2019-02-05T05:01:11.647Z,10.57
2019-02-05T05:04:13.293Z,10.53
2019-02-05T05:07:27.699Z,10.50
2019-02-05T05:09:55.872Z,9.87
2019-02-05T05:12:24.286Z,10.40
2019-02-05T05:14:51.740Z,10.83
2019-02-05T05:17:19.177Z,10.57
2019-02-05T05:19:46.823Z,10.83
2019-02-05T05:22:15.002Z,10.47
2019-02-05T05:24:42.749Z,11.03
2019-02-05T05:27:11.285Z,11.70
2019-02-05T05:29:41.395Z,11.00
2019-02-05T05:32:08.983Z,10.93
2019-02-05T05:34:36.524Z,10.83
2019-02-05T05:37:03.365Z,11.13
2019-02-05T05:39:30.798Z,11.93
2019-02-05T05:41:58.182Z,11.20
2019-02-05T05:44:25.722Z,11.13
2019-02-05T05:46:55.547Z,10.97
2019-02-05T05:49:27.194Z,10.37
2019-02-05T05:51:54.573Z,10.50
2019-02-05T05:54:21.863Z,11.00
2019-02-05T05:56:49.421Z,11.30
2019-02-05T05:59:16.840Z,11.80
2019-02-05T06:01:44.259Z,11.10
2019-02-05T06:04:12.501Z,10.57
2019-02-05T06:06:45.187Z,10.93
2019-02-05T06:09:12.597Z,11.23
2019-02-05T06:11:40.009Z,10.97
2019-02-05T06:14:07.549Z,11.00
2019-02-05T06:16:35.005Z,11.13
2019-02-05T06:19:02.423Z,10.27
2019-02-05T06:21:29.815Z,11.67
2019-02-05T06:23:57.497Z,10.77
2019-02-05T06:26:24.892Z,10.47
2019-02-05T06:28:52.269Z,10.37
2019-02-05T06:31:19.616Z,10.60
2019-02-05T06:33:47.368Z,10.07
2019-02-05T06:36:14.780Z,10.07
2019-02-05T06:38:44.579Z,11.43
2019-02-05T06:41:11.372Z,11.40
2019-02-05T06:43:39.088Z,10.37
2019-02-05T06:46:06.520Z,9.80
2019-02-05T06:48:33.964Z,10.63
2019-02-05T06:51:01.331Z,10.40
2019-02-05T06:53:28.846Z,9.33
2019-02-05T06:55:56.160Z,10.40
2019-02-05T06:58:23.536Z,9.50
2019-02-05T07:00:50.855Z,10.33
2019-02-05T07:03:18.466Z,10.00
2019-02-05T07:05:47.869Z,9.70
2019-02-05T07:08:15.119Z,10.57
2019-02-05T07:10:42.512Z,9.57
2019-02-05T07:13:10.028Z,9.63
2019-02-05T07:15:37.454Z,9.57
2019-02-05T07:18:05.019Z,9.07
2019-02-05T07:20:34.130Z,8.63
2019-02-05T07:23:01.529Z,8.73
2019-02-05T07:25:29.164Z,8.67
2019-02-05T07:27:56.658Z,9.23
2019-02-05T07:30:24.239Z,9.80
2019-02-05T07:32:51.482Z,10.40
2019-02-05T07:35:18.979Z,9.47
2019-02-05T07:37:49.128Z,9.30
2019-02-05T07:40:17.581Z,9.43
2019-02-05T07:42:45.016Z,10.27
2019-02-05T07:45:15.020Z,9.20
2019-02-05T07:47:42.426Z,10.00
2019-02-05T07:50:15.591Z,9.63
2019-02-05T07:52:43.182Z,9.60
2019-02-05T07:55:10.659Z,9.43
2019-02-05T07:57:38.064Z,9.07
2019-02-05T08:00:17.933Z,9.50
2019-02-05T08:02:45.510Z,10.93
2019-02-05T08:05:15.788Z,11.10
2019-02-05T08:07:43.678Z,10.77
2019-02-05T08:10:12.555Z,10.40
2019-02-05T08:12:39.906Z,10.70
2019-02-05T08:15:09.606Z,10.77
2019-02-05T08:17:37.354Z,10.87
2019-02-05T08:20:05.570Z,10.90
2019-02-05T08:22:32.934Z,10.83
2019-02-05T08:25:00.353Z,10.33
2019-02-05T08:27:27.713Z,10.43
2019-02-05T08:29:55.031Z,10.43
2019-02-05T08:32:22.546Z,11.20
2019-02-05T08:34:49.997Z,10.97
2019-02-05T08:37:17.774Z,10.47
2019-02-05T08:39:45.165Z,10.60
2019-02-05T08:42:12.627Z,10.73
2019-02-05T08:44:39.954Z,11.03
2019-02-05T08:47:07.437Z,10.97
2019-02-05T08:49:34.729Z,10.23
2019-02-05T08:52:02.176Z,10.23
2019-02-05T08:54:29.506Z,11.00
2019-02-05T08:56:57.367Z,10.17
2019-02-05T08:59:24.794Z,10.47
2019-02-05T09:01:52.324Z,11.33
2019-02-05T09:04:19.712Z,10.47
2019-02-05T09:06:47.126Z,10.70
2019-02-05T09:09:14.583Z,10.30
2019-02-05T09:11:41.935Z,11.33
2019-02-05T09:14:11.593Z,10.73
2019-02-05T09:16:38.531Z,10.70
2019-02-05T09:19:06.808Z,10.57
2019-02-05T09:21:34.245Z,11.13
2019-02-05T09:24:05.952Z,12.73
2019-02-05T09:26:33.287Z,13.13
2019-02-05T09:29:00.619Z,11.53
2019-02-05T09:31:27.963Z,11.17
2019-02-05T09:33:55.989Z,11.87
2019-02-05T09:36:23.847Z,10.63
2019-02-05T09:38:51.683Z,11.27
2019-02-05T09:41:19.081Z,11.73
2019-02-05T09:43:46.531Z,11.43
2019-02-05T09:46:14.025Z,11.93
2019-02-05T09:48:41.409Z,11.57
2019-02-05T09:51:08.840Z,11.93
2019-02-05T09:53:36.304Z,11.10
2019-02-05T09:56:03.786Z,10.80
2019-02-05T09:58:31.223Z,11.10
2019-02-05T10:00:59.810Z,11.63
2019-02-05T10:03:27.520Z,11.03
2019-02-05T10:05:55.000Z,11.87
2019-02-05T10:08:22.443Z,10.80
2019-02-05T10:10:49.911Z,10.37
2019-02-05T10:13:17.555Z,10.70
2019-02-05T10:15:45.048Z,11.30
2019-02-05T10:18:12.431Z,10.60
2019-02-05T10:20:39.932Z,11.37
2019-02-05T10:23:08.214Z,10.03
2019-02-05T10:25:35.915Z,10.73
2019-02-05T10:28:03.520Z,11.13
2019-02-05T10:30:33.038Z,11.17
2019-02-05T10:33:01.913Z,11.30
2019-02-05T10:35:29.352Z,11.10
2019-02-05T10:37:57.776Z,11.20
2019-02-05T10:40:25.719Z,10.90
2019-02-05T10:42:53.138Z,11.00
2019-02-05T10:45:20.619Z,11.40
2019-02-05T10:47:48.959Z,10.87
2019-02-05T10:50:16.948Z,10.70
2019-02-05T10:52:45.004Z,10.60
2019-02-05T10:55:14.554Z,11.33
2019-02-05T10:57:42.000Z,11.33
2019-02-05T11:00:13.573Z,11.30
2019-02-05T11:02:41.853Z,10.77
2019-02-05T11:05:10.819Z,10.90
2019-02-05T11:07:38.272Z,10.33
2019-02-05T11:10:08.114Z,10.27
2019-02-05T11:12:35.575Z,10.17
2019-02-05T11:15:04.675Z,10.63
2019-02-05T11:17:32.197Z,9.80
2019-02-05T11:19:59.673Z,9.93
2019-02-05T11:22:27.223Z,10.10
2019-02-05T11:24:54.575Z,10.17
2019-02-05T11:27:27.906Z,9.97
2019-02-05T11:29:55.288Z,9.67
2019-02-05T11:32:22.761Z,9.87
2019-02-05T11:34:50.181Z,9.53
2019-02-05T11:37:17.616Z,10.57
2019-02-05T11:39:45.112Z,9.77
2019-02-05T11:42:12.502Z,10.23
2019-02-05T11:44:40.047Z,9.90
2019-02-05T11:47:07.512Z,11.30
2019-02-05T11:49:34.955Z,11.33
2019-02-05T11:52:02.388Z,10.97
2019-02-05T11:54:30.359Z,9.97
2019-02-05T11:56:57.733Z,9.57
2019-02-05T11:59:25.163Z,9.90
2019-02-05T12:01:52.747Z,10.40
2019-02-05T12:04:20.143Z,9.87
2019-02-05T12:06:47.920Z,10.33
2019-02-05T12:09:17.079Z,9.93
2019-02-05T12:11:44.504Z,10.30
2019-02-05T12:14:11.986Z,10.97
2019-02-05T12:16:42.161Z,10.97
2019-02-05T12:19:09.616Z,11.73
2019-02-05T12:21:37.057Z,12.40
2019-02-05T12:24:04.609Z,11.30
2019-02-05T12:26:32.186Z,11.20
2019-02-05T12:28:59.624Z,11.10
2019-02-05T12:31:27.062Z,11.60
2019-02-05T12:33:54.492Z,10.93
2019-02-05T12:36:22.296Z,11.67
2019-02-05T12:38:49.715Z,12.03
2019-02-05T12:41:17.191Z,12.60
2019-02-05T12:43:44.630Z,12.60
2019-02-05T12:46:12.022Z,12.37
2019-02-05T12:48:39.590Z,11.77
2019-02-05T12:51:07.096Z,13.00
2019-02-05T12:53:34.522Z,12.63
2019-02-05T12:56:01.944Z,12.47
2019-02-05T12:58:29.328Z,12.63
2019-02-05T13:00:59.050Z,13.90
2019-02-05T13:03:26.403Z,14.77
2019-02-05T13:05:54.044Z,13.83
2019-02-05T13:08:21.480Z,14.97
2019-02-05T13:10:50.713Z,13.77
2019-02-05T13:13:18.521Z,13.80
2019-02-05T13:15:46.258Z,14.47
2019-02-05T13:18:13.731Z,14.07
2019-02-05T13:20:41.319Z,14.93
2019-02-05T13:23:09.230Z,16.13
2019-02-05T13:25:36.953Z,16.27
2019-02-05T13:28:07.110Z,16.20
2019-02-05T13:30:34.605Z,16.87
2019-02-05T13:33:01.995Z,17.03
2019-02-05T13:35:29.950Z,17.33
2019-02-05T13:37:57.682Z,17.27
2019-02-05T13:40:25.694Z,17.10
2019-02-05T13:42:52.998Z,18.53
2019-02-05T13:45:23.170Z,17.40
2019-02-05T13:47:50.688Z,18.27
2019-02-05T13:50:32.107Z,19.07
2019-02-05T13:52:49.786Z,19.97
2019-02-05T13:55:20.720Z,18.53
2019-02-05T13:57:48.114Z,19.93
2019-02-05T14:00:23.442Z,20.20
2019-02-05T14:02:50.863Z,19.73
2019-02-05T14:05:18.274Z,20.00
2019-02-05T14:07:46.034Z,20.37
2019-02-05T14:10:16.893Z,20.47
2019-02-05T14:12:44.194Z,21.17
2019-02-05T14:15:11.946Z,20.57
2019-02-05T14:17:39.300Z,21.00
2019-02-05T14:20:07.520Z,20.83
2019-02-05T14:22:35.003Z,21.67
2019-02-05T14:25:03.508Z,21.33
2019-02-05T14:27:30.995Z,21.77
2019-02-05T14:29:58.363Z,21.60
2019-02-05T14:32:25.649Z,21.50
2019-02-05T14:34:52.989Z,22.97
2019-02-05T14:37:20.237Z,23.30
2019-02-05T14:39:48.991Z,22.80
2019-02-05T14:42:17.075Z,22.50
2019-02-05T14:44:44.430Z,23.33
2019-02-05T14:47:12.023Z,23.50
2019-02-05T14:49:39.633Z,23.77
2019-02-05T14:52:07.004Z,23.27
2019-02-05T14:54:34.457Z,22.97
2019-02-05T14:57:01.841Z,23.50
2019-02-05T14:59:29.652Z,21.90
2019-02-05T15:01:56.977Z,22.97
2019-02-05T15:04:24.404Z,22.47
2019-02-05T15:06:51.959Z,22.90
2019-02-05T15:09:19.449Z,22.40
2019-02-05T15:11:46.990Z,21.53
2019-02-05T15:14:14.447Z,21.77
2019-02-05T15:16:42.275Z,23.00
2019-02-05T15:19:09.622Z,20.57
2019-02-05T15:21:36.984Z,21.63
2019-02-05T15:24:04.503Z,22.63
2019-02-05T15:26:31.977Z,22.33
2019-02-05T15:28:59.367Z,21.07
2019-02-05T15:31:26.848Z,22.33
2019-02-05T15:34:00.366Z,20.37
2019-02-05T15:36:40.041Z,22.13
2019-02-05T15:39:13.130Z,19.57
2019-02-05T15:41:40.529Z,20.87
2019-02-05T15:44:07.858Z,21.23
2019-02-05T15:46:35.275Z,20.97
2019-02-05T15:49:02.746Z,20.60
2019-02-05T15:51:30.109Z,21.87
2019-02-05T15:53:57.536Z,21.47
2019-02-05T15:56:24.968Z,20.77
2019-02-05T15:58:52.461Z,22.20
2019-02-05T16:01:19.856Z,21.73
2019-02-05T16:03:47.319Z,20.27
2019-02-05T16:06:14.753Z,21.13
2019-02-05T16:08:42.136Z,21.93
2019-02-05T16:11:09.511Z,22.70
2019-02-05T16:13:36.929Z,20.77
2019-02-05T16:16:04.744Z,21.73
2019-02-05T16:18:32.102Z,21.60
2019-02-05T16:21:00.010Z,21.87
2019-02-05T16:23:27.457Z,22.60
2019-02-05T16:25:55.191Z,20.53
2019-02-05T16:28:22.544Z,21.23
2019-02-05T16:30:49.942Z,19.77
2019-02-05T16:33:17.272Z,20.77
2019-02-05T16:35:44.611Z,23.83
2019-02-05T16:38:12.022Z,21.30
2019-02-05T16:40:39.333Z,20.73
2019-02-05T16:43:06.936Z,21.80
2019-02-05T16:45:34.225Z,21.97
2019-02-05T16:48:01.607Z,22.63
2019-02-05T16:50:35.751Z,22.00
2019-02-05T16:53:05.137Z,21.03
2019-02-05T16:55:32.989Z,22.00
2019-02-05T16:58:00.398Z,22.80
2019-02-05T17:00:30.820Z,22.37
2019-02-05T17:02:58.254Z,20.87
2019-02-05T17:05:26.686Z,22.73
2019-02-05T17:07:54.183Z,23.50
2019-02-05T17:10:21.751Z,23.17
2019-02-05T17:12:49.268Z,23.10
2019-02-05T17:15:16.718Z,23.93
2019-02-05T17:17:44.173Z,22.73
2019-02-05T17:20:24.019Z,23.43
2019-02-05T17:22:51.518Z,22.13
2019-02-05T17:25:19.240Z,24.23
2019-02-05T17:27:46.753Z,24.20
2019-02-05T17:30:17.174Z,24.27
2019-02-05T17:32:44.669Z,21.63
2019-02-05T17:35:12.439Z,21.37
2019-02-05T17:37:39.825Z,21.33
2019-02-05T17:40:09.797Z,22.90
2019-02-05T17:42:37.709Z,21.83
2019-02-05T17:45:08.889Z,23.33
2019-02-05T17:47:36.349Z,28.40
2019-02-05T17:50:04.827Z,22.80
2019-02-05T17:52:34.240Z,21.67
2019-02-05T17:55:01.705Z,22.43
2019-02-05T17:57:29.596Z,21.17
2019-02-05T17:59:57.050Z,22.53
2019-02-05T18:02:24.370Z,20.03
2019-02-05T18:04:51.760Z,23.10
2019-02-05T18:07:19.209Z,22.40
2019-02-05T18:09:46.663Z,19.57
2019-02-05T18:12:14.128Z,21.27
2019-02-05T18:14:41.546Z,19.77
2019-02-05T18:17:09.132Z,21.40
2019-02-05T18:19:36.486Z,21.53
2019-02-05T18:22:04.321Z,20.73
2019-02-05T18:24:31.623Z,19.13
2019-02-05T18:26:59.058Z,21.43
2019-02-05T18:29:26.449Z,20.77
2019-02-05T18:31:53.772Z,21.50
2019-02-05T18:34:21.461Z,21.90
2019-02-05T18:36:48.868Z,22.10
2019-02-05T18:39:16.078Z,22.97
2019-02-05T18:41:43.421Z,22.77
2019-02-05T18:44:10.734Z,21.23
2019-02-05T18:46:38.205Z,19.70
2019-02-05T18:49:06.755Z,19.57
2019-02-05T18:51:35.498Z,20.87
2019-02-05T18:54:05.624Z,21.57
2019-02-05T18:56:34.251Z,24.10
2019-02-05T18:59:01.798Z,20.17
2019-02-05T19:01:29.381Z,20.87
2019-02-05T19:03:58.042Z,23.10
2019-02-05T19:06:25.602Z,18.90
2019-02-05T19:08:53.406Z,18.23
2019-02-05T19:11:20.876Z,18.37
2019-02-05T19:13:48.323Z,17.67
2019-02-05T19:16:16.287Z,16.90
2019-02-05T19:18:44.021Z,17.70
2019-02-05T19:21:11.640Z,16.60
2019-02-05T19:23:39.045Z,17.60
2019-02-05T19:26:17.386Z,16.83
2019-02-05T19:28:47.183Z,18.43
2019-02-05T19:31:24.895Z,17.87
2019-02-05T19:33:53.492Z,17.80
2019-02-05T19:36:21.062Z,17.33
2019-02-05T19:38:48.510Z,17.90
2019-02-05T19:41:16.536Z,17.67
2019-02-05T19:43:56.019Z,18.63
2019-02-05T19:46:41.856Z,19.27
2019-02-05T19:49:32.513Z,19.83
2019-02-05T19:52:00.142Z,17.73
2019-02-05T19:54:28.002Z,19.03
2019-02-05T19:56:56.629Z,18.20
2019-02-05T19:59:24.473Z,19.83
2019-02-05T20:01:52.128Z,19.53
2019-02-05T20:04:19.581Z,18.10
2019-02-05T20:06:47.169Z,20.90
2019-02-05T20:09:14.707Z,22.27
2019-02-05T20:11:42.686Z,21.03
2019-02-05T20:14:10.306Z,18.67
2019-02-05T20:16:38.547Z,18.47
2019-02-05T20:19:07.183Z,20.33
2019-02-05T20:21:34.735Z,20.07
2019-02-05T20:24:02.274Z,18.37
2019-02-05T20:26:29.842Z,20.17
2019-02-05T20:28:57.342Z,20.17
2019-02-05T20:31:24.759Z,20.23
2019-02-05T20:33:52.403Z,17.67
2019-02-05T20:36:20.162Z,19.30
2019-02-05T20:38:47.968Z,18.07
2019-02-05T20:41:15.952Z,17.77
2019-02-05T20:43:43.424Z,17.33
2019-02-05T20:46:10.795Z,17.43
2019-02-05T20:48:38.915Z,24.57
2019-02-05T20:51:11.288Z,16.70
2019-02-05T20:53:38.848Z,18.20
2019-02-05T20:56:06.396Z,19.33
2019-02-05T20:58:33.896Z,18.13
2019-02-05T21:01:01.728Z,17.37
2019-02-05T21:03:29.693Z,20.73
2019-02-05T21:05:57.402Z,14.30
2019-02-05T21:09:02.789Z,19.73
2019-02-05T21:11:21.174Z,13.83
2019-02-05T21:13:48.790Z,15.53
2019-02-05T21:16:16.475Z,24.93
2019-02-05T21:18:43.971Z,22.13
2019-02-05T21:21:11.497Z,21.97
2019-02-05T21:23:40.060Z,18.33
2019-02-05T21:26:07.643Z,18.27
2019-02-05T21:28:35.126Z,17.43
2019-02-05T21:31:02.683Z,16.27
2019-02-05T21:33:30.188Z,21.37
2019-02-05T21:35:57.614Z,20.23
2019-02-05T21:38:25.080Z,15.90
2019-02-05T21:40:52.579Z,16.47
2019-02-05T21:43:20.371Z,16.33
2019-02-05T21:45:47.838Z,19.33
2019-02-05T21:48:18.563Z,19.63
2019-02-05T21:50:46.747Z,16.53
2019-02-05T21:53:14.678Z,16.93
2019-02-05T21:55:42.082Z,16.20
2019-02-05T21:58:12.421Z,15.63
2019-02-05T22:00:39.801Z,17.07
2019-02-05T22:03:07.755Z,17.40
2019-02-05T22:05:35.144Z,16.47
2019-02-05T22:08:03.063Z,16.10
2019-02-05T22:10:30.800Z,16.70
2019-02-05T22:13:13.727Z,16.90
2019-02-05T22:15:41.481Z,15.80
2019-02-05T22:18:08.965Z,15.63
2019-02-05T22:20:36.587Z,16.63
2019-02-05T22:23:09.456Z,17.67
2019-02-05T22:25:36.896Z,15.20
2019-02-05T22:28:04.716Z,15.60
2019-02-05T22:30:32.918Z,17.10
2019-02-05T22:33:00.712Z,15.07
2019-02-05T22:35:28.570Z,16.33
2019-02-05T22:37:56.203Z,16.50
2019-02-05T22:40:24.943Z,18.37
2019-02-05T22:42:52.745Z,14.53
2019-02-05T22:45:20.629Z,15.23
2019-02-05T22:47:48.084Z,15.77
2019-02-05T22:50:17.192Z,14.60
2019-02-05T22:52:44.584Z,17.23
2019-02-05T22:55:11.940Z,17.80
2019-02-05T22:57:39.395Z,18.10
2019-02-05T23:00:17.104Z,17.10
2019-02-05T23:02:44.493Z,15.87
2019-02-05T23:05:25.370Z,21.83
2019-02-05T23:07:52.863Z,16.00
2019-02-05T23:10:51.754Z,18.77
2019-02-05T23:13:19.633Z,15.50
2019-02-05T23:15:48.470Z,16.83
2019-02-05T23:18:15.932Z,15.60
2019-02-05T23:20:43.339Z,15.83
2019-02-05T23:23:10.871Z,16.03
2019-02-05T23:25:38.246Z,16.77
2019-02-05T23:28:05.708Z,16.07
2019-02-05T23:30:33.061Z,15.50
2019-02-05T23:33:00.411Z,15.00
2019-02-05T23:35:28.161Z,14.57
2019-02-05T23:37:55.605Z,15.77
2019-02-05T23:40:23.035Z,16.73
2019-02-05T23:42:50.414Z,17.53
2019-02-05T23:45:17.705Z,17.83
2019-02-05T23:47:45.012Z,16.37
2019-02-05T23:50:14.637Z,14.97
2019-02-05T23:52:42.333Z,15.33
2019-02-05T23:55:10.517Z,15.43
2019-02-05T23:57:38.062Z,14.30
